sensor_id;sensor_type;location;lat;lon;timestamp;P1;durP1;ratioP1;P2;durP2;ratioP2
5345;SDS011;2695;49.444;11.054;2022-10-17T00:01:01;5.63;;;3.60;;
5345;SDS011;2695;49.444;11.054;2022-10-17T00:03:56;9.10;;;3.50;;
5345;SDS011;2695;49.444;11.054;2022-10-17T00:06:41;5.87;;;3.37;;
5345;SDS011;2695;49.444;11.054;2022-10-17T00:09:47;4.10;;;2.80;;
5345;SDS011;2695;49.444;11.054;2022-10-17T00:19:39;6.83;;;4.43;;
5345;SDS011;2695;49.444;11.054;2022-10-17T00:22:41;8.53;;;3.70;;
5345;SDS011;2695;49.444;11.054;2022-10-17T00:29:27;10.53;;;4.23;;
5345;SDS011;2695;49.444;11.054;2022-10-17T00:32:17;7.93;;;3.93;;
5345;SDS011;2695;49.444;11.054;2022-10-17T00:35:07;7.70;;;3.70;;
5345;SDS011;2695;49.444;11.054;2022-10-17T00:38:09;5.43;;;3.67;;
5345;SDS011;2695;49.444;11.054;2022-10-17T00:40:47;8.17;;;3.93;;
5345;SDS011;2695;49.444;11.054;2022-10-17T00:47:40;8.60;;;3.90;;
5345;SDS011;2695;49.444;11.054;2022-10-17T00:50:37;4.50;;;4.00;;
5345;SDS011;2695;49.444;11.054;2022-10-17T00:53:18;4.80;;;4.17;;
5345;SDS011;2695;49.444;11.054;2022-10-17T00:55:58;5.00;;;3.97;;
5345;SDS011;2695;49.444;11.054;2022-10-17T00:59:02;4.37;;;3.80;;
5345;SDS011;2695;49.444;11.054;2022-10-17T01:02:22;7.53;;;4.40;;
5345;SDS011;2695;49.444;11.054;2022-10-17T01:05:28;5.27;;;3.70;;
5345;SDS011;2695;49.444;11.054;2022-10-17T01:08:56;10.63;;;5.23;;
5345;SDS011;2695;49.444;11.054;2022-10-17T01:12:34;8.43;;;5.10;;
5345;SDS011;2695;49.444;11.054;2022-10-17T01:15:40;5.87;;;4.17;;
5345;SDS011;2695;49.444;11.054;2022-10-17T01:18:50;8.70;;;4.30;;
5345;SDS011;2695;49.444;11.054;2022-10-17T01:22:01;7.67;;;4.90;;
5345;SDS011;2695;49.444;11.054;2022-10-17T01:25:28;5.87;;;4.53;;
5345;SDS011;2695;49.444;11.054;2022-10-17T01:29:00;7.70;;;4.50;;
5345;SDS011;2695;49.444;11.054;2022-10-17T01:35:20;5.60;;;4.63;;
5345;SDS011;2695;49.444;11.054;2022-10-17T01:38:25;6.23;;;4.50;;
5345;SDS011;2695;49.444;11.054;2022-10-17T01:41:26;8.10;;;4.90;;
5345;SDS011;2695;49.444;11.054;2022-10-17T01:44:48;10.93;;;4.30;;
5345;SDS011;2695;49.444;11.054;2022-10-17T01:47:55;6.33;;;4.27;;
5345;SDS011;2695;49.444;11.054;2022-10-17T01:54:29;8.60;;;4.77;;
5345;SDS011;2695;49.444;11.054;2022-10-17T01:58:00;8.57;;;4.70;;
5345;SDS011;2695;49.444;11.054;2022-10-17T02:01:01;5.57;;;4.23;;
5345;SDS011;2695;49.444;11.054;2022-10-17T02:04:09;4.70;;;4.07;;
5345;SDS011;2695;49.444;11.054;2022-10-17T02:10:44;5.07;;;3.90;;
5345;SDS011;2695;49.444;11.054;2022-10-17T02:14:09;8.80;;;4.67;;
5345;SDS011;2695;49.444;11.054;2022-10-17T02:17:20;5.80;;;3.73;;
5345;SDS011;2695;49.444;11.054;2022-10-17T02:20:26;4.47;;;4.00;;
5345;SDS011;2695;49.444;11.054;2022-10-17T02:23:57;5.70;;;3.10;;
5345;SDS011;2695;49.444;11.054;2022-10-17T02:30:41;8.33;;;4.87;;
5345;SDS011;2695;49.444;11.054;2022-10-17T02:34:06;8.53;;;3.70;;
5345;SDS011;2695;49.444;11.054;2022-10-17T02:37:06;4.23;;;3.77;;
5345;SDS011;2695;49.444;11.054;2022-10-17T02:40:36;12.67;;;3.67;;
5345;SDS011;2695;49.444;11.054;2022-10-17T02:48:02;9.87;;;4.43;;
5345;SDS011;2695;49.444;11.054;2022-10-17T02:54:50;8.30;;;4.47;;
5345;SDS011;2695;49.444;11.054;2022-10-17T02:58:44;11.40;;;4.27;;
5345;SDS011;2695;49.444;11.054;2022-10-17T03:05:20;5.50;;;4.20;;
5345;SDS011;2695;49.444;11.054;2022-10-17T03:08:26;8.47;;;4.30;;
5345;SDS011;2695;49.444;11.054;2022-10-17T03:11:25;10.10;;;4.53;;
5345;SDS011;2695;49.444;11.054;2022-10-17T03:14:28;12.40;;;5.23;;
5345;SDS011;2695;49.444;11.054;2022-10-17T03:23:56;8.70;;;5.03;;
5345;SDS011;2695;49.444;11.054;2022-10-17T03:27:28;5.07;;;4.03;;
5345;SDS011;2695;49.444;11.054;2022-10-17T03:30:48;7.60;;;5.10;;
5345;SDS011;2695;49.444;11.054;2022-10-17T03:33:42;5.70;;;3.97;;
5345;SDS011;2695;49.444;11.054;2022-10-17T03:39:58;9.13;;;4.73;;
5345;SDS011;2695;49.444;11.054;2022-10-17T03:42:31;6.90;;;5.10;;
5345;SDS011;2695;49.444;11.054;2022-10-17T03:45:15;5.33;;;4.43;;
5345;SDS011;2695;49.444;11.054;2022-10-17T03:48:01;8.77;;;4.67;;
5345;SDS011;2695;49.444;11.054;2022-10-17T03:54:48;5.50;;;3.37;;
5345;SDS011;2695;49.444;11.054;2022-10-17T03:57:49;11.47;;;4.43;;
5345;SDS011;2695;49.444;11.054;2022-10-17T04:01:06;7.57;;;4.27;;
5345;SDS011;2695;49.444;11.054;2022-10-17T04:03:36;4.40;;;3.77;;
5345;SDS011;2695;49.444;11.054;2022-10-17T04:06:09;7.20;;;3.80;;
5345;SDS011;2695;49.444;11.054;2022-10-17T04:08:40;7.30;;;4.33;;
5345;SDS011;2695;49.444;11.054;2022-10-17T04:11:12;7.10;;;4.50;;
5345;SDS011;2695;49.444;11.054;2022-10-17T04:13:44;12.40;;;3.90;;
5345;SDS011;2695;49.444;11.054;2022-10-17T04:16:15;5.50;;;3.63;;
5345;SDS011;2695;49.444;11.054;2022-10-17T04:18:51;8.37;;;3.80;;
5345;SDS011;2695;49.444;11.054;2022-10-17T04:21:21;6.27;;;3.83;;
5345;SDS011;2695;49.444;11.054;2022-10-17T04:23:53;5.13;;;3.83;;
5345;SDS011;2695;49.444;11.054;2022-10-17T04:26:24;10.13;;;4.10;;
5345;SDS011;2695;49.444;11.054;2022-10-17T04:28:54;4.60;;;3.43;;
5345;SDS011;2695;49.444;11.054;2022-10-17T04:31:22;3.30;;;3.00;;
5345;SDS011;2695;49.444;11.054;2022-10-17T04:33:54;11.57;;;4.47;;
5345;SDS011;2695;49.444;11.054;2022-10-17T04:36:22;5.70;;;3.77;;
5345;SDS011;2695;49.444;11.054;2022-10-17T04:38:52;5.50;;;4.00;;
5345;SDS011;2695;49.444;11.054;2022-10-17T04:41:21;6.40;;;3.73;;
5345;SDS011;2695;49.444;11.054;2022-10-17T04:43:52;4.83;;;3.90;;
5345;SDS011;2695;49.444;11.054;2022-10-17T04:46:21;10.10;;;3.80;;
5345;SDS011;2695;49.444;11.054;2022-10-17T04:48:52;7.33;;;4.73;;
5345;SDS011;2695;49.444;11.054;2022-10-17T04:51:21;8.33;;;3.87;;
5345;SDS011;2695;49.444;11.054;2022-10-17T04:53:52;7.47;;;5.10;;
5345;SDS011;2695;49.444;11.054;2022-10-17T04:56:21;8.03;;;4.30;;
5345;SDS011;2695;49.444;11.054;2022-10-17T04:58:54;9.40;;;4.70;;
5345;SDS011;2695;49.444;11.054;2022-10-17T05:01:22;7.30;;;5.03;;
5345;SDS011;2695;49.444;11.054;2022-10-17T05:03:52;8.90;;;4.93;;
5345;SDS011;2695;49.444;11.054;2022-10-17T05:06:22;7.40;;;4.87;;
5345;SDS011;2695;49.444;11.054;2022-10-17T05:08:59;9.07;;;5.00;;
5345;SDS011;2695;49.444;11.054;2022-10-17T05:11:31;8.70;;;4.17;;
5345;SDS011;2695;49.444;11.054;2022-10-17T05:14:02;6.50;;;5.10;;
5345;SDS011;2695;49.444;11.054;2022-10-17T05:16:30;8.57;;;5.80;;
5345;SDS011;2695;49.444;11.054;2022-10-17T05:19:01;9.73;;;4.97;;
5345;SDS011;2695;49.444;11.054;2022-10-17T05:21:35;7.40;;;5.13;;
5345;SDS011;2695;49.444;11.054;2022-10-17T05:24:04;10.23;;;4.67;;
5345;SDS011;2695;49.444;11.054;2022-10-17T05:26:34;7.83;;;4.93;;
5345;SDS011;2695;49.444;11.054;2022-10-17T05:29:06;12.63;;;4.93;;
5345;SDS011;2695;49.444;11.054;2022-10-17T05:31:43;10.90;;;5.00;;
5345;SDS011;2695;49.444;11.054;2022-10-17T05:34:12;8.50;;;5.00;;
5345;SDS011;2695;49.444;11.054;2022-10-17T05:36:45;6.77;;;4.63;;
5345;SDS011;2695;49.444;11.054;2022-10-17T05:39:13;10.03;;;5.20;;
5345;SDS011;2695;49.444;11.054;2022-10-17T05:41:45;9.50;;;5.20;;
5345;SDS011;2695;49.444;11.054;2022-10-17T05:44:19;11.40;;;4.93;;
5345;SDS011;2695;49.444;11.054;2022-10-17T05:46:48;8.73;;;5.60;;
5345;SDS011;2695;49.444;11.054;2022-10-17T05:49:17;12.60;;;4.43;;
5345;SDS011;2695;49.444;11.054;2022-10-17T05:52:05;8.57;;;5.37;;
5345;SDS011;2695;49.444;11.054;2022-10-17T05:54:34;13.00;;;5.10;;
5345;SDS011;2695;49.444;11.054;2022-10-17T05:57:08;12.37;;;5.57;;
5345;SDS011;2695;49.444;11.054;2022-10-17T05:59:38;10.50;;;5.40;;
5345;SDS011;2695;49.444;11.054;2022-10-17T06:02:07;8.00;;;3.97;;
5345;SDS011;2695;49.444;11.054;2022-10-17T06:04:38;19.30;;;5.83;;
5345;SDS011;2695;49.444;11.054;2022-10-17T06:07:12;14.97;;;5.27;;
5345;SDS011;2695;49.444;11.054;2022-10-17T06:09:42;9.30;;;3.83;;
5345;SDS011;2695;49.444;11.054;2022-10-17T06:12:14;9.67;;;4.77;;
5345;SDS011;2695;49.444;11.054;2022-10-17T06:14:45;13.80;;;4.83;;
5345;SDS011;2695;49.444;11.054;2022-10-17T06:17:14;13.87;;;4.27;;
5345;SDS011;2695;49.444;11.054;2022-10-17T06:19:43;9.80;;;4.10;;
5345;SDS011;2695;49.444;11.054;2022-10-17T06:22:12;8.20;;;4.10;;
5345;SDS011;2695;49.444;11.054;2022-10-17T06:24:45;10.00;;;5.13;;
5345;SDS011;2695;49.444;11.054;2022-10-17T06:27:13;7.33;;;4.57;;
5345;SDS011;2695;49.444;11.054;2022-10-17T06:29:42;8.27;;;4.30;;
5345;SDS011;2695;49.444;11.054;2022-10-17T06:32:14;4.97;;;3.73;;
5345;SDS011;2695;49.444;11.054;2022-10-17T06:34:43;8.00;;;4.53;;
5345;SDS011;2695;49.444;11.054;2022-10-17T06:37:15;8.43;;;3.43;;
5345;SDS011;2695;49.444;11.054;2022-10-17T06:39:44;7.43;;;3.87;;
5345;SDS011;2695;49.444;11.054;2022-10-17T06:42:12;3.23;;;2.90;;
5345;SDS011;2695;49.444;11.054;2022-10-17T06:44:42;5.93;;;3.20;;
5345;SDS011;2695;49.444;11.054;2022-10-17T06:47:15;6.33;;;4.27;;
5345;SDS011;2695;49.444;11.054;2022-10-17T06:49:45;9.43;;;3.90;;
5345;SDS011;2695;49.444;11.054;2022-10-17T06:52:14;4.80;;;3.43;;
5345;SDS011;2695;49.444;11.054;2022-10-17T06:54:43;5.57;;;3.23;;
5345;SDS011;2695;49.444;11.054;2022-10-17T06:57:12;7.83;;;4.10;;
5345;SDS011;2695;49.444;11.054;2022-10-17T06:59:41;11.35;;;3.60;;
5345;SDS011;2695;49.444;11.054;2022-10-17T07:02:11;5.28;;;3.80;;
5345;SDS011;2695;49.444;11.054;2022-10-17T07:04:39;5.90;;;3.47;;
5345;SDS011;2695;49.444;11.054;2022-10-17T07:07:08;7.95;;;3.83;;
5345;SDS011;2695;49.444;11.054;2022-10-17T07:09:37;7.90;;;3.80;;
5345;SDS011;2695;49.444;11.054;2022-10-17T07:12:06;7.57;;;3.72;;
5345;SDS011;2695;49.444;11.054;2022-10-17T07:14:37;8.52;;;3.67;;
5345;SDS011;2695;49.444;11.054;2022-10-17T07:17:08;10.77;;;3.35;;
5345;SDS011;2695;49.444;11.054;2022-10-17T07:19:41;5.30;;;3.45;;
5345;SDS011;2695;49.444;11.054;2022-10-17T07:22:10;5.10;;;3.50;;
5345;SDS011;2695;49.444;11.054;2022-10-17T07:24:39;4.30;;;3.45;;
5345;SDS011;2695;49.444;11.054;2022-10-17T07:27:07;4.68;;;3.75;;
5345;SDS011;2695;49.444;11.054;2022-10-17T07:29:37;9.23;;;3.00;;
5345;SDS011;2695;49.444;11.054;2022-10-17T07:32:06;7.47;;;3.38;;
5345;SDS011;2695;49.444;11.054;2022-10-17T07:34:38;4.25;;;3.00;;
5345;SDS011;2695;49.444;11.054;2022-10-17T07:37:07;7.53;;;2.95;;
5345;SDS011;2695;49.444;11.054;2022-10-17T07:39:36;6.72;;;2.90;;
5345;SDS011;2695;49.444;11.054;2022-10-17T07:42:05;5.05;;;3.10;;
5345;SDS011;2695;49.444;11.054;2022-10-17T07:44:34;6.90;;;3.78;;
5345;SDS011;2695;49.444;11.054;2022-10-17T07:47:03;5.60;;;3.17;;
5345;SDS011;2695;49.444;11.054;2022-10-17T07:49:31;9.98;;;4.25;;
5345;SDS011;2695;49.444;11.054;2022-10-17T07:52:01;10.90;;;3.13;;
5345;SDS011;2695;49.444;11.054;2022-10-17T07:54:31;8.18;;;3.58;;
5345;SDS011;2695;49.444;11.054;2022-10-17T07:57:00;8.50;;;3.28;;
5345;SDS011;2695;49.444;11.054;2022-10-17T07:59:28;10.35;;;2.60;;
5345;SDS011;2695;49.444;11.054;2022-10-17T08:01:56;4.80;;;2.90;;
5345;SDS011;2695;49.444;11.054;2022-10-17T08:04:24;5.03;;;2.95;;
5345;SDS011;2695;49.444;11.054;2022-10-17T08:06:58;4.75;;;3.40;;
5345;SDS011;2695;49.444;11.054;2022-10-17T08:09:46;3.10;;;2.80;;
5345;SDS011;2695;49.444;11.054;2022-10-17T08:12:14;9.57;;;3.53;;
5345;SDS011;2695;49.444;11.054;2022-10-17T08:14:42;9.38;;;3.33;;
5345;SDS011;2695;49.444;11.054;2022-10-17T08:17:10;7.55;;;3.28;;
5345;SDS011;2695;49.444;11.054;2022-10-17T08:19:40;3.90;;;3.10;;
5345;SDS011;2695;49.444;11.054;2022-10-17T08:22:09;7.35;;;4.15;;
5345;SDS011;2695;49.444;11.054;2022-10-17T08:24:37;5.30;;;3.75;;
5345;SDS011;2695;49.444;11.054;2022-10-17T08:27:08;7.30;;;3.28;;
5345;SDS011;2695;49.444;11.054;2022-10-17T08:29:41;9.15;;;3.70;;
5345;SDS011;2695;49.444;11.054;2022-10-17T08:32:13;6.85;;;3.53;;
5345;SDS011;2695;49.444;11.054;2022-10-17T08:34:41;6.65;;;3.78;;
5345;SDS011;2695;49.444;11.054;2022-10-17T08:37:13;4.38;;;3.40;;
5345;SDS011;2695;49.444;11.054;2022-10-17T08:39:41;6.32;;;3.60;;
5345;SDS011;2695;49.444;11.054;2022-10-17T08:42:16;9.45;;;4.10;;
5345;SDS011;2695;49.444;11.054;2022-10-17T08:45:10;4.40;;;3.15;;
5345;SDS011;2695;49.444;11.054;2022-10-17T08:47:46;4.15;;;2.85;;
5345;SDS011;2695;49.444;11.054;2022-10-17T08:50:20;6.20;;;2.65;;
5345;SDS011;2695;49.444;11.054;2022-10-17T08:52:59;3.70;;;3.40;;
5345;SDS011;2695;49.444;11.054;2022-10-17T08:55:31;2.90;;;2.60;;
5345;SDS011;2695;49.444;11.054;2022-10-17T08:58:11;5.40;;;3.17;;
5345;SDS011;2695;49.444;11.054;2022-10-17T09:00:42;10.13;;;2.50;;
5345;SDS011;2695;49.444;11.054;2022-10-17T09:03:18;5.45;;;3.00;;
5345;SDS011;2695;49.444;11.054;2022-10-17T09:06:01;3.25;;;2.58;;
5345;SDS011;2695;49.444;11.054;2022-10-17T09:08:40;7.00;;;3.00;;
5345;SDS011;2695;49.444;11.054;2022-10-17T09:11:18;3.15;;;2.58;;
5345;SDS011;2695;49.444;11.054;2022-10-17T09:14:00;4.53;;;2.42;;
5345;SDS011;2695;49.444;11.054;2022-10-17T09:16:51;4.45;;;3.08;;
5345;SDS011;2695;49.444;11.054;2022-10-17T09:19:33;7.07;;;2.78;;
5345;SDS011;2695;49.444;11.054;2022-10-17T09:22:08;3.72;;;2.88;;
5345;SDS011;2695;49.444;11.054;2022-10-17T09:24:41;3.50;;;2.28;;
5345;SDS011;2695;49.444;11.054;2022-10-17T09:27:17;5.35;;;2.30;;
5345;SDS011;2695;49.444;11.054;2022-10-17T09:29:51;3.72;;;2.95;;
5345;SDS011;2695;49.444;11.054;2022-10-17T09:32:23;7.57;;;2.63;;
5345;SDS011;2695;49.444;11.054;2022-10-17T09:34:52;2.85;;;2.15;;
5345;SDS011;2695;49.444;11.054;2022-10-17T09:37:23;8.50;;;3.10;;
5345;SDS011;2695;49.444;11.054;2022-10-17T09:40:00;3.83;;;2.85;;
5345;SDS011;2695;49.444;11.054;2022-10-17T09:42:28;3.88;;;2.85;;
5345;SDS011;2695;49.444;11.054;2022-10-17T09:45:01;7.85;;;2.70;;
5345;SDS011;2695;49.444;11.054;2022-10-17T09:47:41;4.82;;;2.45;;
5345;SDS011;2695;49.444;11.054;2022-10-17T09:50:19;4.75;;;2.50;;
5345;SDS011;2695;49.444;11.054;2022-10-17T09:52:52;3.03;;;2.63;;
5345;SDS011;2695;49.444;11.054;2022-10-17T09:55:25;5.03;;;2.28;;
5345;SDS011;2695;49.444;11.054;2022-10-17T09:57:59;3.75;;;2.40;;
5345;SDS011;2695;49.444;11.054;2022-10-17T10:00:30;5.40;;;2.83;;
5345;SDS011;2695;49.444;11.054;2022-10-17T10:03:09;4.47;;;2.53;;
5345;SDS011;2695;49.444;11.054;2022-10-17T10:05:41;3.42;;;2.13;;
5345;SDS011;2695;49.444;11.054;2022-10-17T10:08:25;6.00;;;2.67;;
5345;SDS011;2695;49.444;11.054;2022-10-17T10:10:57;5.05;;;2.65;;
5345;SDS011;2695;49.444;11.054;2022-10-17T10:13:29;12.40;;;2.70;;
5345;SDS011;2695;49.444;11.054;2022-10-17T10:16:15;4.32;;;3.00;;
5345;SDS011;2695;49.444;11.054;2022-10-17T10:18:47;2.47;;;2.28;;
5345;SDS011;2695;49.444;11.054;2022-10-17T10:21:17;4.50;;;2.88;;
5345;SDS011;2695;49.444;11.054;2022-10-17T10:24:01;4.22;;;2.97;;
5345;SDS011;2695;49.444;11.054;2022-10-17T10:26:36;4.03;;;2.28;;
5345;SDS011;2695;49.444;11.054;2022-10-17T10:29:19;4.55;;;2.50;;
5345;SDS011;2695;49.444;11.054;2022-10-17T10:31:58;6.13;;;3.00;;
5345;SDS011;2695;49.444;11.054;2022-10-17T10:34:35;3.63;;;2.30;;
5345;SDS011;2695;49.444;11.054;2022-10-17T10:37:14;4.25;;;2.47;;
5345;SDS011;2695;49.444;11.054;2022-10-17T10:39:46;2.95;;;2.55;;
5345;SDS011;2695;49.444;11.054;2022-10-17T10:42:19;3.25;;;2.38;;
5345;SDS011;2695;49.444;11.054;2022-10-17T10:44:50;2.60;;;2.35;;
5345;SDS011;2695;49.444;11.054;2022-10-17T10:47:21;8.30;;;2.13;;
5345;SDS011;2695;49.444;11.054;2022-10-17T10:49:52;7.35;;;2.17;;
5345;SDS011;2695;49.444;11.054;2022-10-17T10:52:37;2.70;;;2.30;;
5345;SDS011;2695;49.444;11.054;2022-10-17T10:55:14;3.22;;;2.75;;
5345;SDS011;2695;49.444;11.054;2022-10-17T10:57:50;6.35;;;2.92;;
5345;SDS011;2695;49.444;11.054;2022-10-17T11:00:23;4.22;;;2.72;;
5345;SDS011;2695;49.444;11.054;2022-10-17T11:02:58;9.60;;;2.85;;
5345;SDS011;2695;49.444;11.054;2022-10-17T11:05:39;2.67;;;2.22;;
5345;SDS011;2695;49.444;11.054;2022-10-17T11:08:14;2.80;;;2.42;;
5345;SDS011;2695;49.444;11.054;2022-10-17T11:10:52;2.28;;;1.92;;
5345;SDS011;2695;49.444;11.054;2022-10-17T11:13:38;12.95;;;2.75;;
5345;SDS011;2695;49.444;11.054;2022-10-17T11:16:17;5.30;;;2.40;;
5345;SDS011;2695;49.444;11.054;2022-10-17T11:18:54;4.43;;;2.63;;
5345;SDS011;2695;49.444;11.054;2022-10-17T11:21:31;4.43;;;2.40;;
5345;SDS011;2695;49.444;11.054;2022-10-17T11:24:08;2.25;;;2.05;;
5345;SDS011;2695;49.444;11.054;2022-10-17T11:26:43;8.70;;;2.80;;
5345;SDS011;2695;49.444;11.054;2022-10-17T11:29:17;2.60;;;2.35;;
5345;SDS011;2695;49.444;11.054;2022-10-17T11:31:46;7.28;;;3.25;;
5345;SDS011;2695;49.444;11.054;2022-10-17T11:34:17;5.22;;;3.03;;
5345;SDS011;2695;49.444;11.054;2022-10-17T11:36:49;3.97;;;3.13;;
5345;SDS011;2695;49.444;11.054;2022-10-17T11:39:26;4.03;;;2.95;;
5345;SDS011;2695;49.444;11.054;2022-10-17T11:41:58;4.03;;;2.88;;
5345;SDS011;2695;49.444;11.054;2022-10-17T11:44:35;2.78;;;2.50;;
5345;SDS011;2695;49.444;11.054;2022-10-17T11:47:05;3.40;;;2.58;;
5345;SDS011;2695;49.444;11.054;2022-10-17T11:49:40;5.68;;;2.70;;
5345;SDS011;2695;49.444;11.054;2022-10-17T11:52:33;5.63;;;2.60;;
5345;SDS011;2695;49.444;11.054;2022-10-17T11:55:25;2.70;;;2.40;;
5345;SDS011;2695;49.444;11.054;2022-10-17T11:57:57;5.70;;;2.50;;
5345;SDS011;2695;49.444;11.054;2022-10-17T12:00:41;5.35;;;2.53;;
5345;SDS011;2695;49.444;11.054;2022-10-17T12:03:28;4.88;;;3.10;;
5345;SDS011;2695;49.444;11.054;2022-10-17T12:06:09;3.97;;;2.78;;
5345;SDS011;2695;49.444;11.054;2022-10-17T12:08:43;6.18;;;3.15;;
5345;SDS011;2695;49.444;11.054;2022-10-17T12:11:22;7.60;;;2.97;;
5345;SDS011;2695;49.444;11.054;2022-10-17T12:14:00;3.10;;;2.65;;
5345;SDS011;2695;49.444;11.054;2022-10-17T12:19:23;2.63;;;2.30;;
5345;SDS011;2695;49.444;11.054;2022-10-17T12:21:54;7.53;;;2.65;;
5345;SDS011;2695;49.444;11.054;2022-10-17T12:24:30;5.27;;;2.73;;
5345;SDS011;2695;49.444;11.054;2022-10-17T12:27:30;4.83;;;2.60;;
5345;SDS011;2695;49.444;11.054;2022-10-17T12:30:16;6.80;;;2.83;;
5345;SDS011;2695;49.444;11.054;2022-10-17T12:35:47;3.27;;;2.97;;
5345;SDS011;2695;49.444;11.054;2022-10-17T12:38:21;7.63;;;2.80;;
5345;SDS011;2695;49.444;11.054;2022-10-17T12:41:00;7.33;;;2.90;;
5345;SDS011;2695;49.444;11.054;2022-10-17T12:43:42;3.87;;;2.77;;
5345;SDS011;2695;49.444;11.054;2022-10-17T12:46:12;5.90;;;2.67;;
5345;SDS011;2695;49.444;11.054;2022-10-17T12:54:59;3.30;;;2.80;;
5345;SDS011;2695;49.444;11.054;2022-10-17T12:57:40;4.33;;;3.33;;
5345;SDS011;2695;49.444;11.054;2022-10-17T13:00:19;3.27;;;2.50;;
5345;SDS011;2695;49.444;11.054;2022-10-17T13:02:53;6.23;;;2.23;;
5345;SDS011;2695;49.444;11.054;2022-10-17T13:05:26;2.93;;;2.20;;
5345;SDS011;2695;49.444;11.054;2022-10-17T13:07:58;4.53;;;3.43;;
5345;SDS011;2695;49.444;11.054;2022-10-17T13:10:28;4.17;;;2.80;;
5345;SDS011;2695;49.444;11.054;2022-10-17T13:13:03;4.63;;;3.13;;
5345;SDS011;2695;49.444;11.054;2022-10-17T13:15:34;4.67;;;2.90;;
5345;SDS011;2695;49.444;11.054;2022-10-17T13:18:03;6.17;;;3.10;;
5345;SDS011;2695;49.444;11.054;2022-10-17T13:20:33;2.27;;;2.07;;
5345;SDS011;2695;49.444;11.054;2022-10-17T13:23:01;3.67;;;2.20;;
5345;SDS011;2695;49.444;11.054;2022-10-17T13:25:30;2.87;;;2.43;;
5345;SDS011;2695;49.444;11.054;2022-10-17T13:28:05;3.63;;;2.73;;
5345;SDS011;2695;49.444;11.054;2022-10-17T13:30:38;4.60;;;2.67;;
5345;SDS011;2695;49.444;11.054;2022-10-17T13:33:27;3.60;;;2.70;;
5345;SDS011;2695;49.444;11.054;2022-10-17T13:36:00;5.63;;;2.47;;
5345;SDS011;2695;49.444;11.054;2022-10-17T13:38:30;3.90;;;2.70;;
5345;SDS011;2695;49.444;11.054;2022-10-17T13:41:04;4.30;;;2.77;;
5345;SDS011;2695;49.444;11.054;2022-10-17T13:43:58;2.53;;;2.33;;
5345;SDS011;2695;49.444;11.054;2022-10-17T13:46:29;5.37;;;3.00;;
5345;SDS011;2695;49.444;11.054;2022-10-17T13:49:09;3.20;;;2.40;;
5345;SDS011;2695;49.444;11.054;2022-10-17T13:51:45;5.10;;;2.70;;
5345;SDS011;2695;49.444;11.054;2022-10-17T13:54:16;4.40;;;2.30;;
5345;SDS011;2695;49.444;11.054;2022-10-17T13:56:45;5.57;;;3.03;;
5345;SDS011;2695;49.444;11.054;2022-10-17T13:59:17;4.80;;;2.63;;
5345;SDS011;2695;49.444;11.054;2022-10-17T14:01:49;10.67;;;3.27;;
5345;SDS011;2695;49.444;11.054;2022-10-17T14:04:18;2.93;;;2.63;;
5345;SDS011;2695;49.444;11.054;2022-10-17T14:06:47;13.30;;;2.73;;
5345;SDS011;2695;49.444;11.054;2022-10-17T14:09:20;4.13;;;2.27;;
5345;SDS011;2695;49.444;11.054;2022-10-17T14:11:57;5.23;;;2.70;;
5345;SDS011;2695;49.444;11.054;2022-10-17T14:14:27;9.40;;;2.50;;
5345;SDS011;2695;49.444;11.054;2022-10-17T14:17:12;2.97;;;2.50;;
5345;SDS011;2695;49.444;11.054;2022-10-17T14:19:40;4.70;;;2.37;;
5345;SDS011;2695;49.444;11.054;2022-10-17T14:22:24;7.00;;;3.10;;
5345;SDS011;2695;49.444;11.054;2022-10-17T14:24:54;3.80;;;2.40;;
5345;SDS011;2695;49.444;11.054;2022-10-17T14:27:29;5.90;;;3.10;;
5345;SDS011;2695;49.444;11.054;2022-10-17T14:30:01;6.93;;;2.50;;
5345;SDS011;2695;49.444;11.054;2022-10-17T14:32:32;6.13;;;3.00;;
5345;SDS011;2695;49.444;11.054;2022-10-17T14:35:02;5.10;;;3.10;;
5345;SDS011;2695;49.444;11.054;2022-10-17T14:37:56;4.00;;;2.77;;
5345;SDS011;2695;49.444;11.054;2022-10-17T14:40:26;3.07;;;2.77;;
5345;SDS011;2695;49.444;11.054;2022-10-17T14:42:58;4.67;;;2.70;;
5345;SDS011;2695;49.444;11.054;2022-10-17T14:45:30;4.90;;;3.00;;
5345;SDS011;2695;49.444;11.054;2022-10-17T14:48:02;3.03;;;2.40;;
5345;SDS011;2695;49.444;11.054;2022-10-17T14:50:33;4.30;;;2.90;;
5345;SDS011;2695;49.444;11.054;2022-10-17T14:53:04;4.83;;;2.70;;
5345;SDS011;2695;49.444;11.054;2022-10-17T14:55:33;3.53;;;2.80;;
5345;SDS011;2695;49.444;11.054;2022-10-17T14:58:15;4.00;;;2.77;;
5345;SDS011;2695;49.444;11.054;2022-10-17T15:00:43;4.00;;;2.73;;
5345;SDS011;2695;49.444;11.054;2022-10-17T15:03:12;4.90;;;3.20;;
5345;SDS011;2695;49.444;11.054;2022-10-17T15:05:40;3.43;;;3.13;;
5345;SDS011;2695;49.444;11.054;2022-10-17T15:08:10;7.23;;;6.40;;
5345;SDS011;2695;49.444;11.054;2022-10-17T15:10:41;5.03;;;3.60;;
5345;SDS011;2695;49.444;11.054;2022-10-17T15:13:10;3.47;;;3.17;;
5345;SDS011;2695;49.444;11.054;2022-10-17T15:15:54;5.27;;;3.30;;
5345;SDS011;2695;49.444;11.054;2022-10-17T15:18:22;4.00;;;3.00;;
5345;SDS011;2695;49.444;11.054;2022-10-17T15:20:50;4.57;;;3.00;;
5345;SDS011;2695;49.444;11.054;2022-10-17T15:23:33;3.33;;;2.60;;
5345;SDS011;2695;49.444;11.054;2022-10-17T15:26:01;4.93;;;2.77;;
5345;SDS011;2695;49.444;11.054;2022-10-17T15:28:29;7.60;;;3.10;;
5345;SDS011;2695;49.444;11.054;2022-10-17T15:30:58;6.23;;;3.07;;
5345;SDS011;2695;49.444;11.054;2022-10-17T15:33:26;11.93;;;2.83;;
5345;SDS011;2695;49.444;11.054;2022-10-17T15:35:54;6.00;;;2.60;;
5345;SDS011;2695;49.444;11.054;2022-10-17T15:38:23;6.80;;;3.20;;
5345;SDS011;2695;49.444;11.054;2022-10-17T15:40:52;6.30;;;3.83;;
5345;SDS011;2695;49.444;11.054;2022-10-17T15:43:20;6.30;;;3.10;;
5345;SDS011;2695;49.444;11.054;2022-10-17T15:45:49;5.07;;;3.80;;
5345;SDS011;2695;49.444;11.054;2022-10-17T15:48:17;6.00;;;4.27;;
5345;SDS011;2695;49.444;11.054;2022-10-17T15:50:50;8.80;;;3.30;;
5345;SDS011;2695;49.444;11.054;2022-10-17T15:53:18;5.20;;;3.87;;
5345;SDS011;2695;49.444;11.054;2022-10-17T15:55:47;7.13;;;3.83;;
5345;SDS011;2695;49.444;11.054;2022-10-17T15:58:17;8.17;;;4.10;;
5345;SDS011;2695;49.444;11.054;2022-10-17T16:00:46;13.13;;;3.50;;
5345;SDS011;2695;49.444;11.054;2022-10-17T16:03:14;7.00;;;3.60;;
5345;SDS011;2695;49.444;11.054;2022-10-17T16:05:42;6.27;;;4.00;;
5345;SDS011;2695;49.444;11.054;2022-10-17T16:08:10;7.00;;;3.80;;
5345;SDS011;2695;49.444;11.054;2022-10-17T16:10:39;8.30;;;3.63;;
5345;SDS011;2695;49.444;11.054;2022-10-17T16:13:08;8.13;;;4.93;;
5345;SDS011;2695;49.444;11.054;2022-10-17T16:15:44;8.20;;;4.00;;
5345;SDS011;2695;49.444;11.054;2022-10-17T16:18:12;6.53;;;4.27;;
5345;SDS011;2695;49.444;11.054;2022-10-17T16:20:40;7.20;;;3.97;;
5345;SDS011;2695;49.444;11.054;2022-10-17T16:23:09;7.73;;;3.80;;
5345;SDS011;2695;49.444;11.054;2022-10-17T16:25:39;8.80;;;4.67;;
5345;SDS011;2695;49.444;11.054;2022-10-17T16:28:07;12.50;;;5.00;;
5345;SDS011;2695;49.444;11.054;2022-10-17T16:30:39;11.00;;;4.10;;
5345;SDS011;2695;49.444;11.054;2022-10-17T16:33:12;7.90;;;4.30;;
5345;SDS011;2695;49.444;11.054;2022-10-17T16:35:41;12.30;;;4.10;;
5345;SDS011;2695;49.444;11.054;2022-10-17T16:38:10;7.70;;;4.33;;
5345;SDS011;2695;49.444;11.054;2022-10-17T16:40:38;6.77;;;4.57;;
5345;SDS011;2695;49.444;11.054;2022-10-17T16:43:08;8.63;;;4.60;;
5345;SDS011;2695;49.444;11.054;2022-10-17T16:45:38;10.63;;;4.40;;
5345;SDS011;2695;49.444;11.054;2022-10-17T16:48:07;8.33;;;3.93;;
5345;SDS011;2695;49.444;11.054;2022-10-17T16:50:38;8.30;;;4.03;;
5345;SDS011;2695;49.444;11.054;2022-10-17T16:53:06;5.70;;;3.77;;
5345;SDS011;2695;49.444;11.054;2022-10-17T16:55:34;5.47;;;4.07;;
5345;SDS011;2695;49.444;11.054;2022-10-17T16:58:02;6.80;;;4.10;;
5345;SDS011;2695;49.444;11.054;2022-10-17T17:00:30;7.23;;;5.00;;
5345;SDS011;2695;49.444;11.054;2022-10-17T17:02:59;6.63;;;3.73;;
5345;SDS011;2695;49.444;11.054;2022-10-17T17:05:27;7.67;;;4.40;;
5345;SDS011;2695;49.444;11.054;2022-10-17T17:07:56;9.00;;;5.00;;
5345;SDS011;2695;49.444;11.054;2022-10-17T17:10:25;7.43;;;4.13;;
5345;SDS011;2695;49.444;11.054;2022-10-17T17:12:53;8.17;;;4.10;;